Terminal Aerodrome Forecast
Issued by NWS Cleveland, OH

Home | Current Version | Previous Version | Text Only | Print | Product List | Glossary Off
Versions: 1 2 3 4 5 6 7 8 9 10 11 12 13 14 15 16 17 18 19 20 21

620
FTUS41 KCLE 191740
TAFTOL
TAF
KTOL 191740Z 1918/2018 21010KT P6SM -SHRA SCT025 BKN035
      TEMPO 1918/1921 1SM TSRA OVC015CB
     FM192100 26010KT P6SM VCSH OVC040
      TEMPO 1921/1924 2SM SHRA OVC020
     FM200100 28007KT P6SM BKN035
     FM200600 34008KT P6SM OVC025
     FM200900 34005KT 3SM BR BKN009
     FM201300 02005KT P6SM BKN020=

USA.gov is the U.S. government's official web portal to all federal, state and local government web resources and services.